sensor_id;sensor_type;location;lat;lon;timestamp;P1;durP1;ratioP1;P2;durP2;ratioP2
24411;SDS011;12544;46.760;15.942;2022-12-07T00:01:45;26.17;;;16.35;;
24411;SDS011;12544;46.760;15.942;2022-12-07T00:06:41;24.05;;;15.65;;
24411;SDS011;12544;46.760;15.942;2022-12-07T00:09:11;27.27;;;17.48;;
24411;SDS011;12544;46.760;15.942;2022-12-07T00:11:39;29.58;;;17.00;;
24411;SDS011;12544;46.760;15.942;2022-12-07T00:14:05;23.88;;;15.82;;
24411;SDS011;12544;46.760;15.942;2022-12-07T00:16:33;23.38;;;15.43;;
24411;SDS011;12544;46.760;15.942;2022-12-07T00:18:59;23.15;;;14.57;;
24411;SDS011;12544;46.760;15.942;2022-12-07T00:21:27;23.02;;;15.63;;
24411;SDS011;12544;46.760;15.942;2022-12-07T00:23:54;36.00;;;19.75;;
24411;SDS011;12544;46.760;15.942;2022-12-07T00:26:25;29.52;;;17.20;;
24411;SDS011;12544;46.760;15.942;2022-12-07T00:28:54;52.22;;;18.90;;
24411;SDS011;12544;46.760;15.942;2022-12-07T00:31:27;31.63;;;17.40;;
24411;SDS011;12544;46.760;15.942;2022-12-07T00:34:00;29.55;;;17.85;;
24411;SDS011;12544;46.760;15.942;2022-12-07T00:36:26;29.33;;;17.40;;
24411;SDS011;12544;46.760;15.942;2022-12-07T00:38:58;25.90;;;15.88;;
24411;SDS011;12544;46.760;15.942;2022-12-07T00:41:31;25.08;;;16.15;;
24411;SDS011;12544;46.760;15.942;2022-12-07T00:43:58;27.13;;;17.02;;
24411;SDS011;12544;46.760;15.942;2022-12-07T00:46:24;28.95;;;18.02;;
24411;SDS011;12544;46.760;15.942;2022-12-07T00:48:50;27.73;;;17.17;;
24411;SDS011;12544;46.760;15.942;2022-12-07T00:51:18;22.52;;;15.57;;
24411;SDS011;12544;46.760;15.942;2022-12-07T00:53:45;25.63;;;16.83;;
24411;SDS011;12544;46.760;15.942;2022-12-07T00:56:12;26.27;;;16.75;;
24411;SDS011;12544;46.760;15.942;2022-12-07T00:58:53;28.63;;;16.63;;
24411;SDS011;12544;46.760;15.942;2022-12-07T01:04:09;27.17;;;16.48;;
24411;SDS011;12544;46.760;15.942;2022-12-07T01:06:38;30.02;;;18.23;;
24411;SDS011;12544;46.760;15.942;2022-12-07T01:09:09;31.52;;;19.05;;
24411;SDS011;12544;46.760;15.942;2022-12-07T01:14:04;31.33;;;18.13;;
24411;SDS011;12544;46.760;15.942;2022-12-07T01:16:30;27.30;;;17.83;;
24411;SDS011;12544;46.760;15.942;2022-12-07T01:18:58;28.65;;;18.75;;
24411;SDS011;12544;46.760;15.942;2022-12-07T01:21:31;35.33;;;19.70;;
24411;SDS011;12544;46.760;15.942;2022-12-07T01:24:12;31.90;;;18.42;;
24411;SDS011;12544;46.760;15.942;2022-12-07T01:26:38;33.75;;;19.40;;
24411;SDS011;12544;46.760;15.942;2022-12-07T01:29:04;31.27;;;18.77;;
24411;SDS011;12544;46.760;15.942;2022-12-07T01:31:29;32.45;;;17.70;;
24411;SDS011;12544;46.760;15.942;2022-12-07T01:33:57;30.33;;;18.40;;
24411;SDS011;12544;46.760;15.942;2022-12-07T01:36:25;27.50;;;17.45;;
24411;SDS011;12544;46.760;15.942;2022-12-07T01:38:59;24.75;;;16.60;;
24411;SDS011;12544;46.760;15.942;2022-12-07T01:41:29;23.73;;;15.48;;
24411;SDS011;12544;46.760;15.942;2022-12-07T01:46:52;22.05;;;14.75;;
24411;SDS011;12544;46.760;15.942;2022-12-07T01:54:47;20.75;;;13.52;;
24411;SDS011;12544;46.760;15.942;2022-12-07T01:57:15;25.15;;;14.90;;
24411;SDS011;12544;46.760;15.942;2022-12-07T01:59:43;24.67;;;14.85;;
24411;SDS011;12544;46.760;15.942;2022-12-07T02:05:03;22.85;;;14.45;;
24411;SDS011;12544;46.760;15.942;2022-12-07T02:07:30;21.58;;;14.43;;
24411;SDS011;12544;46.760;15.942;2022-12-07T02:12:43;25.95;;;14.82;;
24411;SDS011;12544;46.760;15.942;2022-12-07T02:17:59;23.63;;;15.30;;
24411;SDS011;12544;46.760;15.942;2022-12-07T02:32:11;25.67;;;14.63;;
24411;SDS011;12544;46.760;15.942;2022-12-07T02:34:39;26.23;;;15.32;;
24411;SDS011;12544;46.760;15.942;2022-12-07T02:39:59;26.13;;;14.98;;
24411;SDS011;12544;46.760;15.942;2022-12-07T02:42:34;24.95;;;15.65;;
24411;SDS011;12544;46.760;15.942;2022-12-07T02:45:05;25.25;;;14.55;;
24411;SDS011;12544;46.760;15.942;2022-12-07T02:47:32;23.35;;;14.80;;
24411;SDS011;12544;46.760;15.942;2022-12-07T02:50:02;24.50;;;14.15;;
24411;SDS011;12544;46.760;15.942;2022-12-07T02:52:29;25.05;;;14.45;;
24411;SDS011;12544;46.760;15.942;2022-12-07T02:54:55;25.05;;;14.32;;
24411;SDS011;12544;46.760;15.942;2022-12-07T03:16:10;22.70;;;14.00;;
24411;SDS011;12544;46.760;15.942;2022-12-07T03:19:45;29.08;;;14.38;;
24411;SDS011;12544;46.760;15.942;2022-12-07T03:21:43;23.90;;;13.68;;
24411;SDS011;12544;46.760;15.942;2022-12-07T03:24:17;24.05;;;13.70;;
24411;SDS011;12544;46.760;15.942;2022-12-07T03:26:48;27.50;;;13.48;;
24411;SDS011;12544;46.760;15.942;2022-12-07T03:29:19;21.83;;;12.43;;
24411;SDS011;12544;46.760;15.942;2022-12-07T03:31:55;24.30;;;13.63;;
24411;SDS011;12544;46.760;15.942;2022-12-07T03:34:29;25.30;;;13.23;;
24411;SDS011;12544;46.760;15.942;2022-12-07T03:37:03;20.92;;;13.13;;
24411;SDS011;12544;46.760;15.942;2022-12-07T03:39:34;24.92;;;13.00;;
24411;SDS011;12544;46.760;15.942;2022-12-07T03:42:30;28.45;;;14.98;;
24411;SDS011;12544;46.760;15.942;2022-12-07T03:44:57;32.88;;;15.43;;
24411;SDS011;12544;46.760;15.942;2022-12-07T03:47:29;29.38;;;15.85;;
24411;SDS011;12544;46.760;15.942;2022-12-07T03:49:58;30.65;;;15.40;;
24411;SDS011;12544;46.760;15.942;2022-12-07T03:52:55;27.00;;;14.57;;
24411;SDS011;12544;46.760;15.942;2022-12-07T03:55:29;33.40;;;15.15;;
24411;SDS011;12544;46.760;15.942;2022-12-07T03:58:07;35.55;;;17.08;;
24411;SDS011;12544;46.760;15.942;2022-12-07T04:00:37;31.02;;;16.38;;
24411;SDS011;12544;46.760;15.942;2022-12-07T04:03:05;34.80;;;17.23;;
24411;SDS011;12544;46.760;15.942;2022-12-07T04:05:31;28.75;;;15.40;;
24411;SDS011;12544;46.760;15.942;2022-12-07T04:07:56;29.30;;;15.50;;
24411;SDS011;12544;46.760;15.942;2022-12-07T04:10:22;29.65;;;15.55;;
24411;SDS011;12544;46.760;15.942;2022-12-07T04:12:48;32.05;;;16.45;;
24411;SDS011;12544;46.760;15.942;2022-12-07T04:15:13;27.30;;;16.20;;
24411;SDS011;12544;46.760;15.942;2022-12-07T04:17:39;26.52;;;15.13;;
24411;SDS011;12544;46.760;15.942;2022-12-07T04:20:05;28.17;;;15.00;;
24411;SDS011;12544;46.760;15.942;2022-12-07T04:22:32;28.05;;;14.55;;
24411;SDS011;12544;46.760;15.942;2022-12-07T04:24:57;30.10;;;15.73;;
24411;SDS011;12544;46.760;15.942;2022-12-07T04:27:23;27.35;;;14.45;;
24411;SDS011;12544;46.760;15.942;2022-12-07T04:29:49;33.28;;;16.48;;
24411;SDS011;12544;46.760;15.942;2022-12-07T04:32:15;30.73;;;15.82;;
24411;SDS011;12544;46.760;15.942;2022-12-07T04:34:41;27.83;;;15.57;;
24411;SDS011;12544;46.760;15.942;2022-12-07T04:37:06;28.23;;;15.88;;
24411;SDS011;12544;46.760;15.942;2022-12-07T04:39:32;28.45;;;14.77;;
24411;SDS011;12544;46.760;15.942;2022-12-07T04:41:58;25.48;;;14.35;;
24411;SDS011;12544;46.760;15.942;2022-12-07T04:44:25;29.42;;;14.82;;
24411;SDS011;12544;46.760;15.942;2022-12-07T04:46:53;28.27;;;15.27;;
24411;SDS011;12544;46.760;15.942;2022-12-07T04:49:19;29.83;;;16.35;;
24411;SDS011;12544;46.760;15.942;2022-12-07T04:51:45;29.08;;;16.63;;
24411;SDS011;12544;46.760;15.942;2022-12-07T04:54:12;31.30;;;14.50;;
24411;SDS011;12544;46.760;15.942;2022-12-07T04:56:38;24.08;;;13.55;;
24411;SDS011;12544;46.760;15.942;2022-12-07T04:59:04;29.08;;;16.00;;
24411;SDS011;12544;46.760;15.942;2022-12-07T05:01:30;26.98;;;15.13;;
24411;SDS011;12544;46.760;15.942;2022-12-07T05:03:56;24.20;;;15.45;;
24411;SDS011;12544;46.760;15.942;2022-12-07T05:06:22;28.30;;;14.35;;
24411;SDS011;12544;46.760;15.942;2022-12-07T05:08:48;23.73;;;13.43;;
24411;SDS011;12544;46.760;15.942;2022-12-07T05:11:14;22.45;;;13.80;;
24411;SDS011;12544;46.760;15.942;2022-12-07T05:13:59;29.00;;;15.18;;
24411;SDS011;12544;46.760;15.942;2022-12-07T05:16:25;24.67;;;16.77;;
24411;SDS011;12544;46.760;15.942;2022-12-07T05:18:51;28.65;;;15.73;;
24411;SDS011;12544;46.760;15.942;2022-12-07T05:21:16;32.22;;;16.38;;
24411;SDS011;12544;46.760;15.942;2022-12-07T05:23:42;30.85;;;14.40;;
24411;SDS011;12544;46.760;15.942;2022-12-07T05:26:08;26.38;;;14.52;;
24411;SDS011;12544;46.760;15.942;2022-12-07T05:28:34;26.25;;;14.43;;
24411;SDS011;12544;46.760;15.942;2022-12-07T05:30:59;23.52;;;13.60;;
24411;SDS011;12544;46.760;15.942;2022-12-07T05:33:25;26.02;;;14.05;;
24411;SDS011;12544;46.760;15.942;2022-12-07T05:35:51;23.48;;;14.27;;
24411;SDS011;12544;46.760;15.942;2022-12-07T05:38:16;22.90;;;13.10;;
24411;SDS011;12544;46.760;15.942;2022-12-07T05:40:42;23.75;;;14.20;;
24411;SDS011;12544;46.760;15.942;2022-12-07T05:43:07;23.95;;;14.82;;
24411;SDS011;12544;46.760;15.942;2022-12-07T05:45:33;29.40;;;14.50;;
24411;SDS011;12544;46.760;15.942;2022-12-07T05:47:59;26.70;;;15.20;;
24411;SDS011;12544;46.760;15.942;2022-12-07T05:50:24;25.60;;;13.65;;
24411;SDS011;12544;46.760;15.942;2022-12-07T05:52:50;26.23;;;14.13;;
24411;SDS011;12544;46.760;15.942;2022-12-07T05:55:16;22.98;;;14.40;;
24411;SDS011;12544;46.760;15.942;2022-12-07T05:57:41;22.42;;;12.82;;
24411;SDS011;12544;46.760;15.942;2022-12-07T06:00:27;19.58;;;11.00;;
24411;SDS011;12544;46.760;15.942;2022-12-07T06:02:52;23.77;;;13.48;;
24411;SDS011;12544;46.760;15.942;2022-12-07T06:05:18;22.45;;;13.07;;
24411;SDS011;12544;46.760;15.942;2022-12-07T06:07:43;25.77;;;14.25;;
24411;SDS011;12544;46.760;15.942;2022-12-07T06:10:09;22.35;;;13.02;;
24411;SDS011;12544;46.760;15.942;2022-12-07T06:12:35;21.83;;;13.27;;
24411;SDS011;12544;46.760;15.942;2022-12-07T06:15:03;24.05;;;12.75;;
24411;SDS011;12544;46.760;15.942;2022-12-07T06:17:30;26.73;;;14.13;;
24411;SDS011;12544;46.760;15.942;2022-12-07T06:19:55;26.88;;;14.32;;
24411;SDS011;12544;46.760;15.942;2022-12-07T06:22:21;19.48;;;11.82;;
24411;SDS011;12544;46.760;15.942;2022-12-07T06:24:47;17.70;;;11.75;;
24411;SDS011;12544;46.760;15.942;2022-12-07T06:27:12;21.45;;;13.45;;
24411;SDS011;12544;46.760;15.942;2022-12-07T06:29:38;28.70;;;13.98;;
24411;SDS011;12544;46.760;15.942;2022-12-07T06:32:04;22.73;;;12.93;;
24411;SDS011;12544;46.760;15.942;2022-12-07T06:34:30;22.45;;;13.82;;
24411;SDS011;12544;46.760;15.942;2022-12-07T06:36:55;22.52;;;12.50;;
24411;SDS011;12544;46.760;15.942;2022-12-07T06:39:22;22.23;;;14.07;;
24411;SDS011;12544;46.760;15.942;2022-12-07T06:41:52;22.13;;;12.30;;
24411;SDS011;12544;46.760;15.942;2022-12-07T06:44:19;20.77;;;12.40;;
24411;SDS011;12544;46.760;15.942;2022-12-07T06:46:45;23.48;;;12.48;;
24411;SDS011;12544;46.760;15.942;2022-12-07T06:49:11;26.73;;;12.68;;
24411;SDS011;12544;46.760;15.942;2022-12-07T06:51:37;22.48;;;13.18;;
24411;SDS011;12544;46.760;15.942;2022-12-07T06:54:06;26.00;;;12.65;;
24411;SDS011;12544;46.760;15.942;2022-12-07T06:56:33;28.38;;;14.55;;
24411;SDS011;12544;46.760;15.942;2022-12-07T06:58:59;24.95;;;14.50;;
24411;SDS011;12544;46.760;15.942;2022-12-07T07:01:24;24.83;;;12.93;;
24411;SDS011;12544;46.760;15.942;2022-12-07T07:03:50;28.73;;;13.75;;
24411;SDS011;12544;46.760;15.942;2022-12-07T07:06:15;27.55;;;13.95;;
24411;SDS011;12544;46.760;15.942;2022-12-07T07:08:41;27.67;;;13.70;;
24411;SDS011;12544;46.760;15.942;2022-12-07T07:11:07;22.95;;;12.77;;
24411;SDS011;12544;46.760;15.942;2022-12-07T07:16:27;19.08;;;11.27;;
24411;SDS011;12544;46.760;15.942;2022-12-07T07:18:55;17.92;;;11.75;;
24411;SDS011;12544;46.760;15.942;2022-12-07T07:21:20;20.10;;;11.43;;
24411;SDS011;12544;46.760;15.942;2022-12-07T07:23:46;18.33;;;11.60;;
24411;SDS011;12544;46.760;15.942;2022-12-07T07:26:12;18.17;;;11.30;;
24411;SDS011;12544;46.760;15.942;2022-12-07T07:28:37;19.05;;;11.18;;
24411;SDS011;12544;46.760;15.942;2022-12-07T07:31:03;17.90;;;10.70;;
24411;SDS011;12544;46.760;15.942;2022-12-07T07:33:29;20.40;;;11.65;;
24411;SDS011;12544;46.760;15.942;2022-12-07T07:35:54;17.95;;;11.95;;
24411;SDS011;12544;46.760;15.942;2022-12-07T07:38:20;19.23;;;12.75;;
24411;SDS011;12544;46.760;15.942;2022-12-07T07:40:46;26.67;;;12.13;;
24411;SDS011;12544;46.760;15.942;2022-12-07T07:43:11;20.48;;;12.15;;
24411;SDS011;12544;46.760;15.942;2022-12-07T07:45:37;19.33;;;10.73;;
24411;SDS011;12544;46.760;15.942;2022-12-07T07:48:03;18.90;;;11.07;;
24411;SDS011;12544;46.760;15.942;2022-12-07T07:50:28;21.95;;;12.18;;
24411;SDS011;12544;46.760;15.942;2022-12-07T07:52:54;18.30;;;10.48;;
24411;SDS011;12544;46.760;15.942;2022-12-07T07:55:21;17.88;;;10.48;;
24411;SDS011;12544;46.760;15.942;2022-12-07T07:57:47;14.95;;;10.07;;
24411;SDS011;12544;46.760;15.942;2022-12-07T08:00:13;13.27;;;8.85;;
24411;SDS011;12544;46.760;15.942;2022-12-07T08:02:40;15.23;;;9.20;;
24411;SDS011;12544;46.760;15.942;2022-12-07T08:05:07;14.13;;;10.02;;
24411;SDS011;12544;46.760;15.942;2022-12-07T08:07:33;15.00;;;9.23;;
24411;SDS011;12544;46.760;15.942;2022-12-07T08:09:59;14.00;;;9.55;;
24411;SDS011;12544;46.760;15.942;2022-12-07T08:12:24;15.05;;;11.00;;
24411;SDS011;12544;46.760;15.942;2022-12-07T08:14:50;13.25;;;9.32;;
24411;SDS011;12544;46.760;15.942;2022-12-07T08:17:16;15.50;;;10.52;;
24411;SDS011;12544;46.760;15.942;2022-12-07T08:19:42;18.08;;;10.52;;
24411;SDS011;12544;46.760;15.942;2022-12-07T08:22:07;20.55;;;9.63;;
24411;SDS011;12544;46.760;15.942;2022-12-07T08:24:33;18.80;;;10.57;;
24411;SDS011;12544;46.760;15.942;2022-12-07T08:26:59;16.10;;;10.63;;
24411;SDS011;12544;46.760;15.942;2022-12-07T08:29:25;19.48;;;10.68;;
24411;SDS011;12544;46.760;15.942;2022-12-07T08:31:51;15.52;;;9.90;;
24411;SDS011;12544;46.760;15.942;2022-12-07T08:34:16;20.67;;;11.48;;
24411;SDS011;12544;46.760;15.942;2022-12-07T08:36:42;17.20;;;10.18;;
24411;SDS011;12544;46.760;15.942;2022-12-07T08:39:08;14.98;;;9.95;;
24411;SDS011;12544;46.760;15.942;2022-12-07T08:41:33;15.70;;;10.30;;
24411;SDS011;12544;46.760;15.942;2022-12-07T08:43:59;15.68;;;10.48;;
24411;SDS011;12544;46.760;15.942;2022-12-07T08:49:07;13.30;;;9.50;;
24411;SDS011;12544;46.760;15.942;2022-12-07T08:51:38;18.55;;;11.10;;
24411;SDS011;12544;46.760;15.942;2022-12-07T08:54:06;19.73;;;11.32;;
24411;SDS011;12544;46.760;15.942;2022-12-07T08:56:34;16.38;;;10.82;;
24411;SDS011;12544;46.760;15.942;2022-12-07T08:59:01;14.75;;;10.55;;
24411;SDS011;12544;46.760;15.942;2022-12-07T09:01:28;17.90;;;10.75;;
24411;SDS011;12544;46.760;15.942;2022-12-07T09:03:54;14.15;;;9.68;;
24411;SDS011;12544;46.760;15.942;2022-12-07T09:06:19;15.20;;;9.38;;
24411;SDS011;12544;46.760;15.942;2022-12-07T09:08:48;16.15;;;10.93;;
24411;SDS011;12544;46.760;15.942;2022-12-07T09:13:44;16.30;;;9.88;;
24411;SDS011;12544;46.760;15.942;2022-12-07T09:16:09;17.77;;;10.25;;
24411;SDS011;12544;46.760;15.942;2022-12-07T09:21:23;15.75;;;9.63;;
24411;SDS011;12544;46.760;15.942;2022-12-07T09:23:49;15.82;;;10.15;;
24411;SDS011;12544;46.760;15.942;2022-12-07T09:26:15;15.30;;;9.85;;
24411;SDS011;12544;46.760;15.942;2022-12-07T09:28:40;17.00;;;10.68;;
24411;SDS011;12544;46.760;15.942;2022-12-07T09:31:06;18.35;;;11.35;;
24411;SDS011;12544;46.760;15.942;2022-12-07T09:33:32;15.27;;;10.10;;
24411;SDS011;12544;46.760;15.942;2022-12-07T09:35:57;16.70;;;10.60;;
24411;SDS011;12544;46.760;15.942;2022-12-07T09:38:23;15.77;;;10.25;;
24411;SDS011;12544;46.760;15.942;2022-12-07T09:40:51;17.73;;;12.18;;
24411;SDS011;12544;46.760;15.942;2022-12-07T09:43:20;14.85;;;10.18;;
24411;SDS011;12544;46.760;15.942;2022-12-07T09:45:51;13.05;;;9.98;;
24411;SDS011;12544;46.760;15.942;2022-12-07T09:48:21;16.30;;;10.63;;
24411;SDS011;12544;46.760;15.942;2022-12-07T09:50:57;18.88;;;10.65;;
24411;SDS011;12544;46.760;15.942;2022-12-07T09:55:52;14.77;;;9.32;;
24411;SDS011;12544;46.760;15.942;2022-12-07T09:58:20;15.85;;;9.52;;
24411;SDS011;12544;46.760;15.942;2022-12-07T10:03:55;15.50;;;10.02;;
24411;SDS011;12544;46.760;15.942;2022-12-07T10:06:48;18.77;;;9.90;;
24411;SDS011;12544;46.760;15.942;2022-12-07T10:09:17;13.95;;;9.65;;
24411;SDS011;12544;46.760;15.942;2022-12-07T10:12:03;12.57;;;8.85;;
24411;SDS011;12544;46.760;15.942;2022-12-07T10:14:32;14.70;;;9.45;;
24411;SDS011;12544;46.760;15.942;2022-12-07T10:17:00;13.80;;;9.77;;
24411;SDS011;12544;46.760;15.942;2022-12-07T10:22:00;11.13;;;8.02;;
24411;SDS011;12544;46.760;15.942;2022-12-07T10:24:27;10.73;;;7.43;;
24411;SDS011;12544;46.760;15.942;2022-12-07T10:26:53;11.90;;;7.43;;
24411;SDS011;12544;46.760;15.942;2022-12-07T10:29:38;12.02;;;7.95;;
24411;SDS011;12544;46.760;15.942;2022-12-07T10:32:05;10.32;;;7.47;;
24411;SDS011;12544;46.760;15.942;2022-12-07T10:39:55;10.60;;;7.70;;
24411;SDS011;12544;46.760;15.942;2022-12-07T10:52:58;10.57;;;7.45;;
24411;SDS011;12544;46.760;15.942;2022-12-07T11:03:53;11.45;;;8.30;;
24411;SDS011;12544;46.760;15.942;2022-12-07T11:20:43;12.90;;;10.05;;
24411;SDS011;12544;46.760;15.942;2022-12-07T11:31:38;12.73;;;8.85;;
24411;SDS011;12544;46.760;15.942;2022-12-07T11:39:39;11.27;;;7.65;;
24411;SDS011;12544;46.760;15.942;2022-12-07T11:42:19;10.88;;;8.48;;
24411;SDS011;12544;46.760;15.942;2022-12-07T11:45:28;13.38;;;9.10;;
24411;SDS011;12544;46.760;15.942;2022-12-07T11:48:02;9.88;;;7.70;;
24411;SDS011;12544;46.760;15.942;2022-12-07T11:55:57;11.75;;;9.07;;
24411;SDS011;12544;46.760;15.942;2022-12-07T12:06:35;9.13;;;6.95;;
24411;SDS011;12544;46.760;15.942;2022-12-07T12:20:28;9.23;;;7.13;;
24411;SDS011;12544;46.760;15.942;2022-12-07T12:23:07;9.77;;;7.50;;
24411;SDS011;12544;46.760;15.942;2022-12-07T12:26:21;9.90;;;7.35;;
24411;SDS011;12544;46.760;15.942;2022-12-07T12:38:48;9.52;;;7.05;;
24411;SDS011;12544;46.760;15.942;2022-12-07T12:46:53;10.80;;;7.35;;
24411;SDS011;12544;46.760;15.942;2022-12-07T12:54:38;10.77;;;7.57;;
24411;SDS011;12544;46.760;15.942;2022-12-07T12:57:07;8.93;;;7.32;;
24411;SDS011;12544;46.760;15.942;2022-12-07T13:04:53;9.77;;;7.65;;
24411;SDS011;12544;46.760;15.942;2022-12-07T13:10:20;10.25;;;7.13;;
24411;SDS011;12544;46.760;15.942;2022-12-07T13:18:21;9.73;;;7.15;;
24411;SDS011;12544;46.760;15.942;2022-12-07T13:23:37;8.50;;;6.70;;
24411;SDS011;12544;46.760;15.942;2022-12-07T13:26:22;9.00;;;7.43;;
24411;SDS011;12544;46.760;15.942;2022-12-07T13:31:52;10.07;;;7.82;;
24411;SDS011;12544;46.760;15.942;2022-12-07T13:37:00;11.50;;;6.90;;
24411;SDS011;12544;46.760;15.942;2022-12-07T13:39:46;9.25;;;7.47;;
24411;SDS011;12544;46.760;15.942;2022-12-07T13:42:29;14.10;;;7.43;;
24411;SDS011;12544;46.760;15.942;2022-12-07T13:44:57;8.48;;;6.70;;
24411;SDS011;12544;46.760;15.942;2022-12-07T13:50:24;10.02;;;8.23;;
24411;SDS011;12544;46.760;15.942;2022-12-07T13:52:56;12.05;;;8.93;;
24411;SDS011;12544;46.760;15.942;2022-12-07T13:55:35;12.90;;;8.65;;
24411;SDS011;12544;46.760;15.942;2022-12-07T13:58:00;11.30;;;8.90;;
24411;SDS011;12544;46.760;15.942;2022-12-07T14:00:27;12.30;;;8.75;;
24411;SDS011;12544;46.760;15.942;2022-12-07T14:02:59;12.93;;;8.13;;
24411;SDS011;12544;46.760;15.942;2022-12-07T14:05:28;9.75;;;8.15;;
24411;SDS011;12544;46.760;15.942;2022-12-07T14:10:52;10.32;;;8.30;;
24411;SDS011;12544;46.760;15.942;2022-12-07T14:15:56;9.65;;;7.32;;
24411;SDS011;12544;46.760;15.942;2022-12-07T14:18:37;11.40;;;8.98;;
24411;SDS011;12544;46.760;15.942;2022-12-07T14:23:36;12.93;;;8.10;;
24411;SDS011;12544;46.760;15.942;2022-12-07T14:26:13;10.48;;;8.32;;
24411;SDS011;12544;46.760;15.942;2022-12-07T14:28:41;11.90;;;9.05;;
24411;SDS011;12544;46.760;15.942;2022-12-07T14:33:52;18.95;;;13.40;;
24411;SDS011;12544;46.760;15.942;2022-12-07T14:36:18;15.18;;;12.93;;
24411;SDS011;12544;46.760;15.942;2022-12-07T14:38:44;12.30;;;9.45;;
24411;SDS011;12544;46.760;15.942;2022-12-07T14:41:13;11.73;;;9.35;;
24411;SDS011;12544;46.760;15.942;2022-12-07T14:43:59;10.38;;;7.95;;
24411;SDS011;12544;46.760;15.942;2022-12-07T14:46:25;11.00;;;8.90;;
24411;SDS011;12544;46.760;15.942;2022-12-07T14:48:54;10.75;;;8.07;;
24411;SDS011;12544;46.760;15.942;2022-12-07T14:51:19;10.13;;;8.77;;
24411;SDS011;12544;46.760;15.942;2022-12-07T14:53:46;11.02;;;8.73;;
24411;SDS011;12544;46.760;15.942;2022-12-07T14:56:15;10.05;;;8.57;;
24411;SDS011;12544;46.760;15.942;2022-12-07T15:01:31;15.68;;;12.88;;
24411;SDS011;12544;46.760;15.942;2022-12-07T15:03:56;15.63;;;12.68;;
24411;SDS011;12544;46.760;15.942;2022-12-07T15:06:22;18.40;;;14.10;;
24411;SDS011;12544;46.760;15.942;2022-12-07T15:08:48;21.38;;;13.90;;
24411;SDS011;12544;46.760;15.942;2022-12-07T15:11:19;17.00;;;13.02;;
24411;SDS011;12544;46.760;15.942;2022-12-07T15:13:45;17.50;;;12.47;;
24411;SDS011;12544;46.760;15.942;2022-12-07T15:16:29;20.33;;;14.07;;
24411;SDS011;12544;46.760;15.942;2022-12-07T15:18:55;19.80;;;14.30;;
24411;SDS011;12544;46.760;15.942;2022-12-07T15:21:20;18.27;;;13.07;;
24411;SDS011;12544;46.760;15.942;2022-12-07T15:23:46;20.25;;;13.23;;
24411;SDS011;12544;46.760;15.942;2022-12-07T15:26:12;16.85;;;12.57;;
24411;SDS011;12544;46.760;15.942;2022-12-07T15:28:38;31.92;;;17.60;;
24411;SDS011;12544;46.760;15.942;2022-12-07T15:31:10;22.95;;;14.38;;
24411;SDS011;12544;46.760;15.942;2022-12-07T15:33:36;19.93;;;14.07;;
24411;SDS011;12544;46.760;15.942;2022-12-07T15:36:02;21.45;;;14.35;;
24411;SDS011;12544;46.760;15.942;2022-12-07T15:38:28;20.15;;;13.73;;
24411;SDS011;12544;46.760;15.942;2022-12-07T15:40:56;16.95;;;13.07;;
24411;SDS011;12544;46.760;15.942;2022-12-07T15:43:22;18.25;;;13.20;;
24411;SDS011;12544;46.760;15.942;2022-12-07T15:46:06;19.05;;;13.13;;
24411;SDS011;12544;46.760;15.942;2022-12-07T15:48:32;17.33;;;12.45;;
24411;SDS011;12544;46.760;15.942;2022-12-07T15:51:04;19.13;;;13.18;;
24411;SDS011;12544;46.760;15.942;2022-12-07T15:53:34;20.25;;;11.93;;
24411;SDS011;12544;46.760;15.942;2022-12-07T15:56:00;13.82;;;10.85;;
24411;SDS011;12544;46.760;15.942;2022-12-07T15:58:26;14.60;;;11.60;;
24411;SDS011;12544;46.760;15.942;2022-12-07T16:00:52;16.88;;;11.85;;
24411;SDS011;12544;46.760;15.942;2022-12-07T16:03:17;17.70;;;12.45;;
24411;SDS011;12544;46.760;15.942;2022-12-07T16:05:49;17.13;;;12.77;;
24411;SDS011;12544;46.760;15.942;2022-12-07T16:08:15;23.90;;;15.35;;
24411;SDS011;12544;46.760;15.942;2022-12-07T16:10:41;28.00;;;17.17;;
24411;SDS011;12544;46.760;15.942;2022-12-07T16:13:08;27.52;;;17.13;;
24411;SDS011;12544;46.760;15.942;2022-12-07T16:15:38;25.88;;;16.55;;
24411;SDS011;12544;46.760;15.942;2022-12-07T16:18:07;26.20;;;15.77;;
24411;SDS011;12544;46.760;15.942;2022-12-07T16:20:37;27.30;;;16.75;;
24411;SDS011;12544;46.760;15.942;2022-12-07T16:23:03;27.65;;;18.40;;
24411;SDS011;12544;46.760;15.942;2022-12-07T16:25:29;33.95;;;20.45;;
24411;SDS011;12544;46.760;15.942;2022-12-07T16:27:54;24.35;;;15.25;;
24411;SDS011;12544;46.760;15.942;2022-12-07T16:30:20;20.65;;;13.65;;
24411;SDS011;12544;46.760;15.942;2022-12-07T16:32:46;18.75;;;13.45;;
24411;SDS011;12544;46.760;15.942;2022-12-07T16:35:11;22.23;;;15.70;;
24411;SDS011;12544;46.760;15.942;2022-12-07T16:40:08;17.17;;;12.90;;
24411;SDS011;12544;46.760;15.942;2022-12-07T16:42:34;14.75;;;11.90;;
24411;SDS011;12544;46.760;15.942;2022-12-07T16:45:00;12.75;;;10.45;;
24411;SDS011;12544;46.760;15.942;2022-12-07T16:47:26;15.02;;;11.57;;
24411;SDS011;12544;46.760;15.942;2022-12-07T16:52:21;14.25;;;11.25;;
24411;SDS011;12544;46.760;15.942;2022-12-07T16:54:47;14.25;;;10.98;;
24411;SDS011;12544;46.760;15.942;2022-12-07T16:57:13;15.80;;;11.82;;
24411;SDS011;12544;46.760;15.942;2022-12-07T16:59:39;17.10;;;12.35;;
24411;SDS011;12544;46.760;15.942;2022-12-07T17:02:05;17.45;;;13.55;;
24411;SDS011;12544;46.760;15.942;2022-12-07T17:04:33;14.70;;;12.45;;
24411;SDS011;12544;46.760;15.942;2022-12-07T17:06:59;14.68;;;12.25;;
24411;SDS011;12544;46.760;15.942;2022-12-07T17:09:25;18.50;;;11.52;;
24411;SDS011;12544;46.760;15.942;2022-12-07T17:11:50;14.95;;;11.90;;
24411;SDS011;12544;46.760;15.942;2022-12-07T17:14:33;16.42;;;12.05;;
24411;SDS011;12544;46.760;15.942;2022-12-07T17:17:18;14.00;;;12.25;;
24411;SDS011;12544;46.760;15.942;2022-12-07T17:19:44;16.67;;;13.68;;
24411;SDS011;12544;46.760;15.942;2022-12-07T17:22:10;19.25;;;13.55;;
24411;SDS011;12544;46.760;15.942;2022-12-07T17:24:37;18.55;;;14.25;;
24411;SDS011;12544;46.760;15.942;2022-12-07T17:27:03;17.02;;;12.35;;
24411;SDS011;12544;46.760;15.942;2022-12-07T17:29:29;18.25;;;13.63;;
24411;SDS011;12544;46.760;15.942;2022-12-07T17:31:54;22.58;;;14.02;;
24411;SDS011;12544;46.760;15.942;2022-12-07T17:34:20;17.65;;;13.63;;
24411;SDS011;12544;46.760;15.942;2022-12-07T17:36:45;18.15;;;14.00;;
24411;SDS011;12544;46.760;15.942;2022-12-07T17:39:13;23.42;;;15.07;;
24411;SDS011;12544;46.760;15.942;2022-12-07T17:41:42;18.60;;;13.43;;
24411;SDS011;12544;46.760;15.942;2022-12-07T17:44:27;23.13;;;15.77;;
24411;SDS011;12544;46.760;15.942;2022-12-07T17:46:53;18.20;;;14.07;;
24411;SDS011;12544;46.760;15.942;2022-12-07T17:49:22;21.88;;;16.85;;
24411;SDS011;12544;46.760;15.942;2022-12-07T17:51:48;18.88;;;14.25;;
24411;SDS011;12544;46.760;15.942;2022-12-07T17:54:38;22.98;;;14.75;;
24411;SDS011;12544;46.760;15.942;2022-12-07T17:57:04;21.88;;;15.18;;
24411;SDS011;12544;46.760;15.942;2022-12-07T17:59:29;23.48;;;15.27;;